Time;durP1;ratioP1;P1;durP2;ratioP2;P2;SDS_P1;SDS_P2;PMS_P1;PMS_P2;Temp;Humidity;BMP_temperature;BMP_pressure;BME280_temperature;BME280_humidity;BME280_pressure;Samples;Min_cycle;Max_cycle;Signal;HPM_P1;HPM_P2
2021/11/09 00:00:51;;;;;;;13.93;5.63;;;;;;;5.95;100.00;101674.25;6127762;23;20633;-73
2021/11/09 00:03:18;;;;;;;10.10;5.10;;;;;;;5.95;100.00;101684.59;6127477;23;20181;-73
2021/11/09 00:05:51;;;;;;;15.27;5.97;;;;;;;5.95;100.00;101682.00;6127263;23;20284;-73
2021/11/09 00:08:20;;;;;;;15.03;5.93;;;;;;;5.96;100.00;101687.25;6128176;23;20269;-73
2021/11/09 00:10:47;;;;;;;10.87;5.50;;;;;;;5.95;100.00;101680.28;6128114;23;20628;-73
2021/11/09 00:13:14;;;;;;;11.57;5.53;;;;;;;5.95;100.00;101682.88;6127690;23;20181;-73
2021/11/09 00:15:43;;;;;;;10.87;5.70;;;;;;;5.93;100.00;101683.69;6127098;23;20197;-73
2021/11/09 00:18:11;;;;;;;10.43;5.07;;;;;;;5.89;100.00;101680.19;6127328;23;20280;-72
2021/11/09 00:20:39;;;;;;;12.23;5.67;;;;;;;5.86;100.00;101686.22;6126956;23;20874;-73
2021/11/09 00:23:06;;;;;;;13.00;5.30;;;;;;;5.82;100.00;101688.75;6127578;23;20200;-73
2021/11/09 00:25:33;;;;;;;12.80;5.40;;;;;;;5.81;100.00;101687.03;6127711;23;20347;-73
2021/11/09 00:28:00;;;;;;;9.50;5.67;;;;;;;5.78;100.00;101698.22;6127043;23;20181;-73
2021/11/09 00:30:28;;;;;;;11.97;5.13;;;;;;;5.79;100.00;101699.09;6117309;23;20177;-73
2021/11/09 00:32:56;;;;;;;12.93;5.13;;;;;;;5.77;100.00;101699.09;6127879;23;20201;-73
2021/11/09 00:35:25;;;;;;;10.83;6.17;;;;;;;5.76;100.00;101701.66;6128851;23;20284;-73
2021/11/09 00:37:53;;;;;;;13.53;5.33;;;;;;;5.76;100.00;101709.41;6128762;23;20189;-73
2021/11/09 00:40:22;;;;;;;10.10;5.07;;;;;;;5.77;100.00;101708.53;6128232;23;20170;-73
2021/11/09 00:42:49;;;;;;;13.13;6.03;;;;;;;5.77;100.00;101713.72;6128641;23;20174;-73
2021/11/09 00:45:16;;;;;;;10.93;5.70;;;;;;;5.78;100.00;101713.75;6128134;23;20664;-73
2021/11/09 00:47:44;;;;;;;11.90;5.83;;;;;;;5.81;100.00;101718.97;6128693;23;20174;-73
2021/11/09 00:50:14;;;;;;;10.53;5.93;;;;;;;5.81;100.00;101710.34;6128639;23;20177;-73
2021/11/09 00:52:41;;;;;;;10.70;5.33;;;;;;;5.83;100.00;101706.91;6129086;23;20177;-73
2021/11/09 00:55:09;;;;;;;9.33;5.10;;;;;;;5.85;100.00;101712.09;6130497;23;20201;-73
2021/11/09 00:57:35;;;;;;;11.63;5.37;;;;;;;5.84;100.00;101711.22;6130583;23;20215;-73
2021/11/09 01:00:04;;;;;;;12.07;5.40;;;;;;;5.86;100.00;101709.53;6130740;23;20186;-73
2021/11/09 01:02:30;;;;;;;9.60;5.83;;;;;;;5.86;100.00;101709.53;6130247;23;20185;-73
2021/11/09 01:04:57;;;;;;;10.80;6.07;;;;;;;5.88;100.00;101715.56;6130456;23;20200;-73
2021/11/09 01:07:24;;;;;;;13.30;5.80;;;;;;;5.90;100.00;101722.50;6120262;23;20288;-73
2021/11/09 01:09:51;;;;;;;12.47;5.83;;;;;;;5.90;100.00;101723.38;6130425;23;20181;-73
2021/11/09 01:12:17;;;;;;;11.73;5.40;;;;;;;5.92;100.00;101720.81;6130406;23;20178;-73
2021/11/09 01:14:44;;;;;;;11.57;5.53;;;;;;;5.92;100.00;101733.75;6130220;23;20193;-73
2021/11/09 01:17:11;;;;;;;11.20;5.63;;;;;;;5.93;100.00;101736.34;6130048;23;20573;-73
2021/11/09 01:19:38;;;;;;;8.90;5.77;;;;;;;5.94;100.00;101737.22;6130308;23;20260;-73
2021/11/09 01:22:06;;;;;;;9.77;5.10;;;;;;;5.93;100.00;101738.94;6120319;23;20228;-73
2021/11/09 01:24:35;;;;;;;13.43;5.73;;;;;;;5.93;100.00;101728.59;6130179;23;20173;-72
2021/11/09 01:27:02;;;;;;;17.57;5.40;;;;;;;5.92;100.00;101737.19;6129651;23;20197;-72
2021/11/09 01:29:29;;;;;;;10.43;5.90;;;;;;;5.91;100.00;101738.06;6129928;23;20497;-73
2021/11/09 01:31:55;;;;;;;12.23;5.97;;;;;;;5.94;100.00;101742.38;6128889;23;20181;-73
2021/11/09 01:34:22;;;;;;;11.00;5.40;;;;;;;5.94;100.00;101742.38;6129758;23;20538;-72
2021/11/09 01:36:49;;;;;;;11.37;5.97;;;;;;;5.94;100.00;101748.41;6117942;23;20177;-73
2021/11/09 01:39:15;;;;;;;10.67;5.90;;;;;;;5.96;100.00;101751.97;6129769;23;20197;-73
2021/11/09 01:41:43;;;;;;;12.20;5.37;;;;;;;5.96;100.00;101756.25;6129627;23;20205;-73
2021/11/09 01:44:10;;;;;;;12.40;5.27;;;;;;;5.96;100.00;101749.38;6129690;23;20176;-73
2021/11/09 01:46:37;;;;;;;15.73;6.17;;;;;;;5.96;100.00;101754.53;6120002;23;20206;-73
2021/11/09 01:49:05;;;;;;;9.93;5.80;;;;;;;5.96;100.00;101746.78;6129974;23;20183;-73
2021/11/09 01:51:31;;;;;;;10.90;6.10;;;;;;;5.97;100.00;101750.22;6130396;23;20182;-72
2021/11/09 01:53:59;;;;;;;12.00;6.00;;;;;;;5.97;100.00;101753.69;6129516;23;20177;-73
2021/11/09 01:56:30;;;;;;;12.30;6.10;;;;;;;5.97;100.00;101752.81;6119841;23;20201;-73
2021/11/09 01:58:58;;;;;;;10.97;6.60;;;;;;;5.97;100.00;101753.69;6129535;23;20252;-73
2021/11/09 02:01:30;;;;;;;11.30;6.57;;;;;;;5.97;100.00;101752.81;6117767;23;20260;-72
2021/11/09 02:03:59;;;;;;;12.13;5.70;;;;;;;5.95;100.00;101747.59;6129304;23;20183;-73
2021/11/09 02:06:26;;;;;;;10.57;6.03;;;;;;;5.96;100.00;101748.47;6129127;23;20201;-73
2021/11/09 02:08:58;;;;;;;10.43;5.90;;;;;;;5.97;100.00;101750.22;6119867;23;20279;-73
2021/11/09 02:11:25;;;;;;;12.27;6.10;;;;;;;5.97;100.00;101750.22;6129793;23;20181;-73
2021/11/09 02:13:52;;;;;;;12.83;6.03;;;;;;;5.97;100.00;101745.06;6129679;23;20204;-73
2021/11/09 02:16:20;;;;;;;12.27;5.87;;;;;;;5.97;100.00;101743.31;6129659;23;20198;-73
2021/11/09 02:18:47;;;;;;;11.43;5.73;;;;;;;5.98;100.00;101746.75;6128825;23;20716;-72
2021/11/09 02:21:14;;;;;;;11.17;6.33;;;;;;;5.97;100.00;101752.81;6129392;23;20177;-73
2021/11/09 02:23:44;;;;;;;14.30;6.43;;;;;;;5.97;100.00;101747.63;6129446;23;20256;-72
2021/11/09 02:26:12;;;;;;;11.47;6.53;;;;;;;5.98;100.00;101750.25;6129245;23;20189;-73
2021/11/09 02:28:41;;;;;;;14.10;7.07;;;;;;;5.99;100.00;101751.97;6119250;23;20240;-73
2021/11/09 02:31:08;;;;;;;10.07;6.00;;;;;;;6.01;100.00;101749.41;6129275;23;20225;-72
2021/11/09 02:33:35;;;;;;;10.70;5.63;;;;;;;6.00;100.00;101752.84;6119598;23;20609;-73
2021/11/09 02:36:02;;;;;;;14.37;6.23;;;;;;;6.00;100.00;101752.84;6117590;23;20548;-73
2021/11/09 02:38:30;;;;;;;13.00;6.07;;;;;;;5.99;100.00;101751.09;6117624;23;20193;-72
2021/11/09 02:40:57;;;;;;;10.90;6.03;;;;;;;5.98;100.00;101757.13;6119563;23;20660;-72
2021/11/09 02:43:25;;;;;;;12.27;5.97;;;;;;;5.96;100.00;101759.72;6129429;23;20291;-72
2021/11/09 02:46:09;;;;;;;9.93;6.33;;;;;;;5.95;100.00;101746.72;6129187;23;20667;-73
2021/11/09 02:48:39;;;;;;;10.37;6.00;;;;;;;5.95;100.00;101763.13;6118627;23;20185;-73
2021/11/09 02:51:09;;;;;;;13.23;6.50;;;;;;;5.94;100.00;101760.50;6129640;23;20208;-73
2021/11/09 02:53:42;;;;;;;11.80;5.93;;;;;;;5.94;100.00;101770.88;6129078;23;20184;-73
2021/11/09 02:56:14;;;;;;;14.27;7.20;;;;;;;5.95;100.00;101770.03;6119311;23;20815;-72
2021/11/09 02:58:47;;;;;;;11.90;6.30;;;;;;;5.95;100.00;101773.47;6128778;23;20629;-73
2021/11/09 03:01:20;;;;;;;11.63;6.67;;;;;;;5.96;100.00;101782.13;6128911;23;20625;-73
2021/11/09 03:03:53;;;;;;;9.90;6.20;;;;;;;5.94;100.00;101783.81;6128940;23;20497;-73
2021/11/09 03:06:31;;;;;;;11.13;6.50;;;;;;;5.94;100.00;101782.06;6128875;23;20205;-72
2021/11/09 03:09:05;;;;;;;10.77;6.60;;;;;;;5.95;100.00;101790.72;6129625;23;20269;-73
2021/11/09 03:11:32;;;;;;;15.47;6.77;;;;;;;5.95;100.00;101783.81;6130045;23;20177;-73
2021/11/09 03:13:59;;;;;;;14.00;6.27;;;;;;;5.94;100.00;101783.81;6129604;23;20177;-73
2021/11/09 03:16:29;;;;;;;14.17;6.60;;;;;;;5.95;100.00;101783.81;6129223;23;20200;-73
2021/11/09 03:19:02;;;;;;;13.67;6.97;;;;;;;5.97;100.00;101786.47;6119319;23;20186;-73
2021/11/09 03:40:49;;;;;;;12.53;6.50;;;;;;;6.04;100.00;101814.16;6129574;23;20181;-73
2021/11/09 03:46:00;;;;;;;12.47;6.40;;;;;;;6.03;100.00;101818.50;6119812;23;20205;-73
2021/11/09 03:48:27;;;;;;;13.20;6.77;;;;;;;6.04;100.00;101812.44;6129243;23;20181;-73
2021/11/09 03:51:00;;;;;;;10.37;6.73;;;;;;;6.05;100.00;101814.19;6129525;23;20182;-72
2021/11/09 03:53:29;;;;;;;13.33;6.93;;;;;;;6.05;100.00;101809.00;6129352;23;20561;-73
2021/11/09 03:56:16;;;;;;;13.03;6.67;;;;;;;6.05;100.00;101819.38;6129290;23;20197;-73
2021/11/09 03:58:46;;;;;;;9.33;6.23;;;;;;;6.06;100.00;101809.88;6128710;23;20177;-73
2021/11/09 04:01:15;;;;;;;16.73;6.73;;;;;;;6.03;100.00;101820.19;6129650;23;20216;-73
2021/11/09 04:03:54;;;;;;;16.77;6.70;;;;;;;6.05;100.00;101811.59;6128806;23;20177;-72
2021/11/09 04:06:29;;;;;;;9.27;6.47;;;;;;;6.05;100.00;101821.06;6129121;23;20197;-73
2021/11/09 04:08:59;;;;;;;12.67;6.23;;;;;;;6.05;100.00;101814.19;6128704;23;20181;-73
2021/11/09 04:11:33;;;;;;;11.13;6.50;;;;;;;6.05;100.00;101824.53;6129078;23;20182;-73
2021/11/09 04:14:06;;;;;;;11.13;6.40;;;;;;;6.05;100.00;101824.53;6128928;23;20177;-73
2021/11/09 04:16:39;;;;;;;12.50;6.93;;;;;;;6.05;100.00;101827.13;6128988;23;20895;-73
2021/11/09 04:19:15;;;;;;;10.73;6.87;;;;;;;6.05;100.00;101832.31;6128654;23;20177;-73
2021/11/09 04:22:11;;;;;;;11.50;6.87;;;;;;;6.06;100.00;101835.75;6128952;23;20230;-73
2021/11/09 04:27:39;;;;;;;13.30;7.03;;;;;;;6.05;100.00;101837.50;6128367;23;20193;-73
2021/11/09 04:30:35;;;;;;;11.73;6.13;;;;;;;6.05;100.00;101842.66;6127843;23;20172;-72
2021/11/09 04:33:29;;;;;;;14.67;7.50;;;;;;;6.05;100.00;101841.78;6127054;23;20177;-72
2021/11/09 04:50:15;;;;;;;13.53;6.70;;;;;;;6.07;100.00;101855.63;6127290;23;20261;-72
2021/11/09 05:01:30;;;;;;;12.60;7.00;;;;;;;6.03;100.00;101859.91;6127724;23;20177;-72
2021/11/09 05:09:30;;;;;;;14.03;7.60;;;;;;;5.99;100.00;101865.88;6127516;23;20276;-72
2021/11/09 05:11:57;;;;;;;12.77;7.43;;;;;;;5.99;100.00;101867.59;6127523;23;20180;-72
2021/11/09 05:14:23;;;;;;;11.80;6.93;;;;;;;6.00;100.00;101870.22;6127073;23;20280;-72
2021/11/09 05:16:51;;;;;;;16.67;6.97;;;;;;;5.99;100.00;101876.25;6115195;23;20253;-72
2021/11/09 05:19:17;;;;;;;11.87;7.60;;;;;;;6.00;100.00;101882.31;6127397;23;20622;-72
2021/11/09 05:21:44;;;;;;;14.97;8.00;;;;;;;6.00;100.00;101887.47;6118091;23;20192;-72
2021/11/09 05:24:11;;;;;;;10.97;6.63;;;;;;;6.00;100.00;101895.25;6127653;23;20177;-72
2021/11/09 05:26:41;;;;;;;15.87;7.73;;;;;;;6.01;100.00;101895.25;6127850;23;20220;-72
2021/11/09 05:29:08;;;;;;;16.23;8.37;;;;;;;5.99;100.00;101894.34;6117757;23;20181;-72
2021/11/09 05:31:34;;;;;;;15.47;7.77;;;;;;;5.99;100.00;101903.84;6117890;23;20181;-72
2021/11/09 05:34:03;;;;;;;20.57;8.33;;;;;;;5.98;100.00;101907.28;6117437;23;20272;-72
2021/11/09 05:36:32;;;;;;;12.00;6.77;;;;;;;5.98;100.00;101905.59;6125924;23;20213;-74
2021/11/09 05:39:07;;;;;;;15.13;7.73;;;;;;;5.99;100.00;101911.63;6125163;23;20177;-73
2021/11/09 05:41:36;;;;;;;14.63;7.60;;;;;;;5.98;100.00;101915.94;6116224;23;20180;-72
2021/11/09 05:44:03;;;;;;;16.73;8.03;;;;;;;5.97;100.00;101921.97;6128133;23;20174;-72
2021/11/09 05:46:29;;;;;;;11.03;7.03;;;;;;;5.97;100.00;101921.09;6128895;23;20599;-72
2021/11/09 05:48:56;;;;;;;17.03;7.83;;;;;;;5.97;100.00;101931.44;6128774;23;20181;-72
2021/11/09 05:51:23;;;;;;;12.83;7.00;;;;;;;5.94;100.00;101934.81;6117186;23;20269;-72
2021/11/09 05:53:50;;;;;;;14.23;7.43;;;;;;;5.92;100.00;101933.94;6128631;23;20257;-72
2021/11/09 05:56:16;;;;;;;13.93;7.03;;;;;;;5.92;100.00;101941.69;6127559;23;20525;-72
2021/11/09 05:58:46;;;;;;;14.07;7.50;;;;;;;5.92;100.00;101943.44;6129294;23;20497;-72
2021/11/09 06:01:12;;;;;;;12.03;6.90;;;;;;;5.93;100.00;101948.63;6128430;23;20177;-72
2021/11/09 06:03:39;;;;;;;16.00;7.10;;;;;;;5.94;100.00;101950.34;6128416;23;20177;-72
2021/11/09 06:06:05;;;;;;;13.37;7.50;;;;;;;5.93;100.00;101950.31;6128530;23;20201;-72
2021/11/09 06:08:33;;;;;;;17.43;7.87;;;;;;;5.92;100.00;101946.88;6128094;23;20197;-72
2021/11/09 06:10:59;;;;;;;10.87;7.67;;;;;;;5.91;100.00;101958.09;6119144;23;20189;-72
2021/11/09 06:13:26;;;;;;;12.70;7.47;;;;;;;5.92;100.00;101970.16;6128779;23;20215;-72
2021/11/09 06:15:52;;;;;;;15.33;8.10;;;;;;;5.92;100.00;101966.72;6129195;23;20201;-72
2021/11/09 06:18:19;;;;;;;15.23;7.23;;;;;;;5.94;100.00;101980.56;6128304;23;20512;-72
2021/11/09 06:20:45;;;;;;;16.43;8.80;;;;;;;5.93;100.00;101987.47;6128831;23;20184;-72
2021/11/09 06:23:12;;;;;;;16.30;8.47;;;;;;;5.95;100.00;101990.06;6128170;23;20181;-72
2021/11/09 06:25:43;;;;;;;12.67;8.17;;;;;;;5.95;100.00;102000.44;6128723;23;20194;-72
2021/11/09 06:28:09;;;;;;;15.43;8.87;;;;;;;5.94;100.00;102002.13;6128512;23;20776;-72
2021/11/09 06:30:36;;;;;;;19.27;9.13;;;;;;;5.95;100.00;102010.78;6129195;23;20181;-72
2021/11/09 06:33:02;;;;;;;17.87;9.03;;;;;;;5.96;100.00;102007.38;6128353;23;20181;-72
2021/11/09 06:35:29;;;;;;;27.70;13.33;;;;;;;5.97;100.00;102011.72;6128014;23;20193;-72
2021/11/09 06:37:56;;;;;;;15.73;9.20;;;;;;;5.97;100.00;102017.75;6126530;23;20829;-72
2021/11/09 06:40:22;;;;;;;21.97;11.57;;;;;;;5.99;100.00;102023.81;6127458;23;20189;-72
2021/11/09 06:42:51;;;;;;;24.17;14.73;;;;;;;6.01;100.00;102022.13;6127403;23;20231;-72
2021/11/09 06:45:17;;;;;;;15.10;8.07;;;;;;;6.01;100.00;102021.25;6118755;23;20541;-72
2021/11/09 06:47:45;;;;;;;19.23;8.53;;;;;;;6.04;100.00;102035.13;6128075;23;20280;-72
2021/11/09 06:50:13;;;;;;;14.10;8.47;;;;;;;6.04;100.00;102023.91;6128373;23;20236;-72
2021/11/09 06:52:39;;;;;;;13.17;7.93;;;;;;;6.03;100.00;102028.22;6128209;23;20257;-72
2021/11/09 06:55:06;;;;;;;20.07;8.40;;;;;;;6.05;100.00;102033.38;6128790;23;20197;-72
2021/11/09 06:57:33;;;;;;;14.77;8.17;;;;;;;6.09;100.00;102045.56;6128634;23;20173;-72
2021/11/09 07:00:00;;;;;;;13.87;8.47;;;;;;;6.11;100.00;102048.16;6127270;23;20188;-72
2021/11/09 07:02:28;;;;;;;16.80;8.43;;;;;;;6.12;100.00;102050.78;6126083;23;20268;-72
2021/11/09 07:04:54;;;;;;;13.33;7.97;;;;;;;6.14;100.00;102054.25;6128460;23;20201;-72
2021/11/09 07:07:21;;;;;;;15.40;9.07;;;;;;;6.16;100.00;102060.34;6128353;23;20296;-74
2021/11/09 07:09:47;;;;;;;17.17;9.30;;;;;;;6.17;100.00;102067.22;6128072;23;20778;-72
2021/11/09 07:12:14;;;;;;;15.83;8.60;;;;;;;6.20;100.00;102077.66;6128274;23;20197;-72
2021/11/09 07:14:40;;;;;;;13.63;9.50;;;;;;;6.21;100.00;102076.81;6128747;23;20326;-72
2021/11/09 07:17:09;;;;;;;17.13;9.70;;;;;;;6.24;100.00;102084.63;6128305;23;20493;-72
2021/11/09 07:19:37;;;;;;;16.37;9.90;;;;;;;6.28;100.00;102085.56;6127931;23;20264;-72
2021/11/09 07:22:04;;;;;;;16.93;9.90;;;;;;;6.31;100.00;102088.16;6128387;23;20178;-72
2021/11/09 07:24:31;;;;;;;17.13;9.73;;;;;;;6.30;100.00;102096.81;6128150;23;20633;-72
2021/11/09 07:26:57;;;;;;;19.00;10.13;;;;;;;6.34;100.00;102089.94;6128397;23;20188;-72
2021/11/09 07:29:24;;;;;;;20.83;9.93;;;;;;;6.35;100.00;102094.25;6127877;23;20183;-72
2021/11/09 07:31:53;;;;;;;21.67;12.13;;;;;;;6.37;100.00;102093.44;6128422;23;20181;-72
2021/11/09 07:34:21;;;;;;;24.53;16.50;;;;;;;6.39;100.00;102096.06;6127728;23;20174;-72
2021/11/09 07:36:47;;;;;;;22.60;14.03;;;;;;;6.41;100.00;102096.97;6127927;23;20187;-72
2021/11/09 07:39:14;;;;;;;26.47;16.37;;;;;;;6.46;100.00;102103.09;6127872;23;20220;-72
2021/11/09 07:41:41;;;;;;;21.73;13.93;;;;;;;6.50;100.00;102110.03;6127947;23;20181;-72
2021/11/09 07:44:08;;;;;;;25.20;15.23;;;;;;;6.52;100.00;102108.34;6127720;23;20256;-72
2021/11/09 07:46:37;;;;;;;45.20;23.40;;;;;;;6.55;100.00;102110.97;6128360;23;20202;-72
2021/11/09 07:49:04;;;;;;;41.97;18.00;;;;;;;6.61;100.00;102108.50;6127912;23;20233;-72
2021/11/09 07:51:32;;;;;;;49.60;21.90;;;;;;;6.64;100.00;102120.59;6128245;23;20205;-72
2021/11/09 07:54:00;;;;;;;24.90;12.53;;;;;;;6.66;100.00;102120.63;6115802;23;20181;-72
2021/11/09 07:56:31;;;;;;;25.90;13.73;;;;;;;6.71;100.00;102129.34;6127899;23;20197;-72
2021/11/09 07:59:10;;;;;;;30.07;13.63;;;;;;;6.76;100.00;102128.56;6127194;23;20181;-72
2021/11/09 08:01:41;;;;;;;21.00;10.40;;;;;;;6.81;100.00;102136.41;6118004;23;20268;-72
2021/11/09 08:04:11;;;;;;;45.03;23.20;;;;;;;6.83;100.00;102145.94;6127226;23;20230;-72
2021/11/09 08:06:48;;;;;;;59.07;29.17;;;;;;;6.87;100.00;102143.38;6127802;23;20529;-73
2021/11/09 08:09:20;;;;;;;36.17;18.80;;;;;;;6.89;100.00;102139.09;6127394;23;20301;-72
2021/11/09 08:11:47;;;;;;;27.60;13.37;;;;;;;6.92;100.00;102145.19;6127901;23;20182;-72
2021/11/09 08:14:14;;;;;;;27.47;13.13;;;;;;;6.97;100.00;102134.88;6127378;23;20265;-72
2021/11/09 08:16:41;;;;;;;32.07;13.57;;;;;;;7.04;100.00;102143.63;6127804;23;20195;-72
2021/11/09 08:19:07;;;;;;;19.50;10.70;;;;;;;7.11;100.00;102153.22;6127270;23;20216;-72
2021/11/09 08:21:35;;;;;;;24.30;11.97;;;;;;;7.17;100.00;102148.94;6127989;23;20189;-72
2021/11/09 08:24:04;;;;;;;23.77;10.87;;;;;;;7.20;100.00;102149.00;6118221;23;20182;-72
2021/11/09 08:26:31;;;;;;;20.27;9.37;;;;;;;7.29;100.00;102156.03;6127873;23;20289;-73
2021/11/09 08:29:00;;;;;;;17.77;9.10;;;;;;;7.32;100.00;102150.88;6127201;23;20283;-72
2021/11/09 08:31:27;;;;;;;20.03;9.30;;;;;;;7.41;100.00;102152.72;6127828;23;20294;-72
2021/11/09 08:33:55;;;;;;;17.00;8.67;;;;;;;7.46;100.00;102157.94;6127224;23;20217;-72
2021/11/09 08:36:24;;;;;;;19.33;9.67;;;;;;;7.50;100.00;102157.13;6126721;23;20258;-72
2021/11/09 08:38:52;;;;;;;15.47;8.47;;;;;;;7.49;100.00;102161.47;6126535;23;20259;-72
2021/11/09 08:41:26;;;;;;;15.73;7.87;;;;;;;7.54;100.00;102167.53;6126941;23;20238;-72
2021/11/09 08:44:00;;;;;;;22.13;10.90;;;;;;;7.56;100.00;102171.06;6127272;23;20291;-72
2021/11/09 08:46:30;;;;;;;13.80;8.40;;;;;;;7.67;100.00;102165.06;6118293;23;20438;-72
2021/11/09 08:48:57;;;;;;;11.47;7.30;;;;;;;7.65;100.00;102172.88;6117154;23;20492;-72
2021/11/09 08:51:24;;;;;;;18.87;9.23;;;;;;;7.69;100.00;102171.19;6127704;23;20180;-73
2021/11/09 08:53:54;;;;;;;16.80;8.53;;;;;;;7.70;100.00;102175.50;6117380;23;20279;-73
2021/11/09 08:56:34;;;;;;;13.90;7.27;;;;;;;7.69;100.00;102174.63;6127558;23;20283;-73
2021/11/09 09:04:31;;;;;;;12.63;6.80;;;;;;;7.53;100.00;102186.59;6127205;23;20179;-72
2021/11/09 09:06:59;;;;;;;15.40;7.30;;;;;;;7.56;100.00;102189.22;6117381;23;20191;-72
2021/11/09 09:09:26;;;;;;;13.53;7.27;;;;;;;7.57;100.00;102192.69;6126823;23;20198;-72
2021/11/09 09:11:54;;;;;;;13.47;7.07;;;;;;;7.52;100.00;102195.22;6127041;23;20473;-72
2021/11/09 09:14:22;;;;;;;20.60;7.57;;;;;;;7.55;100.00;102189.19;6127440;23;20205;-73
2021/11/09 09:16:49;;;;;;;15.97;7.60;;;;;;;7.59;100.00;102185.78;6129544;23;20196;-72
2021/11/09 09:19:17;;;;;;;14.43;6.70;;;;;;;7.60;100.00;102187.53;6129205;23;20261;-72
2021/11/09 09:21:46;;;;;;;19.73;8.20;;;;;;;7.58;100.00;102195.28;6117750;23;20208;-73
2021/11/09 09:24:25;;;;;;;16.10;7.63;;;;;;;7.55;100.00;102202.19;6119462;23;20231;-72
2021/11/09 09:27:03;;;;;;;13.43;7.43;;;;;;;7.62;100.00;102200.53;6129311;23;20175;-72
2021/11/09 09:29:42;;;;;;;12.87;7.73;;;;;;;7.62;100.00;102197.94;6117107;23;20198;-72
2021/11/09 09:32:32;;;;;;;15.60;7.87;;;;;;;7.57;100.00;102197.88;6118960;23;20265;-72
2021/11/09 09:54:51;;;;;;;12.70;7.83;;;;;;;7.99;100.00;102209.56;6098547;23;20184;-74
2021/11/09 09:57:17;;;;;;;17.37;9.13;;;;;;;8.02;100.00;102206.13;6128690;23;20561;-74
2021/11/09 09:59:47;;;;;;;17.07;7.60;;;;;;;8.06;100.00;102211.38;6127369;23;20171;-74
2021/11/09 10:02:17;;;;;;;16.17;8.10;;;;;;;8.10;100.00;102204.47;6128408;23;20187;-74
2021/11/09 10:04:46;;;;;;;12.57;7.63;;;;;;;8.10;100.00;102200.13;6127792;23;20749;-74
2021/11/09 10:07:14;;;;;;;9.60;6.67;;;;;;;8.11;100.00;102201.91;6128354;23;20181;-74
2021/11/09 10:09:44;;;;;;;14.37;7.20;;;;;;;8.18;100.00;102205.44;6128011;23;20196;-74
2021/11/09 10:12:20;;;;;;;17.23;7.90;;;;;;;8.26;100.00;102205.47;6128645;23;20174;-74
2021/11/09 10:14:49;;;;;;;13.17;7.73;;;;;;;8.31;100.00;102196.84;6128935;23;20200;-74
2021/11/09 10:17:18;;;;;;;13.17;7.23;;;;;;;8.28;100.00;102206.34;6128154;23;20504;-74
2021/11/09 10:19:45;;;;;;;15.13;7.73;;;;;;;8.19;100.00;102201.94;6128198;23;20271;-74
2021/11/09 10:22:24;;;;;;;14.10;7.60;;;;;;;8.20;100.00;102198.50;6128059;23;20172;-74
2021/11/09 10:24:54;;;;;;;12.83;6.90;;;;;;;8.26;100.00;102198.53;6116386;23;20200;-74
2021/11/09 10:27:21;;;;;;;11.50;6.37;;;;;;;8.29;100.00;102200.31;6128054;23;20181;-74
2021/11/09 10:29:52;;;;;;;11.90;6.70;;;;;;;8.27;100.00;102196.84;6127543;23;20200;-74
2021/11/09 10:32:22;;;;;;;15.20;7.00;;;;;;;8.30;100.00;102197.75;6118210;23;20216;-74
2021/11/09 10:34:49;;;;;;;13.63;6.30;;;;;;;8.35;100.00;102189.97;6127907;23;20737;-74
2021/11/09 10:37:18;;;;;;;15.27;6.90;;;;;;;8.31;100.00;102191.66;6124409;23;20184;-74
2021/11/09 10:39:46;;;;;;;12.37;6.83;;;;;;;8.30;100.00;102195.13;6127492;23;20566;-74
2021/11/09 10:42:14;;;;;;;11.17;7.17;;;;;;;8.30;100.00;102187.34;6115093;23;20190;-74
2021/11/09 10:44:42;;;;;;;13.57;7.50;;;;;;;8.32;100.00;102182.16;6127441;23;20732;-74
2021/11/09 10:47:17;;;;;;;20.60;7.67;;;;;;;8.38;100.00;102190.00;6127066;23;20492;-74
2021/11/09 10:49:52;;;;;;;16.27;6.97;;;;;;;8.37;100.00;102190.84;6127808;23;20209;-74
2021/11/09 10:52:26;;;;;;;14.57;7.00;;;;;;;8.41;100.00;102186.53;6117817;23;20180;-74
2021/11/09 10:54:57;;;;;;;16.10;7.30;;;;;;;8.46;100.00;102192.66;6128052;23;20196;-74
2021/11/09 10:57:34;;;;;;;11.23;6.60;;;;;;;8.47;100.00;102200.47;6128375;23;20173;-74
2021/11/09 11:00:14;;;;;;;10.00;6.50;;;;;;;8.51;100.00;102190.97;6126627;23;20173;-74
2021/11/09 11:05:26;;;;;;;11.73;5.90;;;;;;;8.51;100.00;102194.47;6126720;23;20202;-73
2021/11/09 11:07:53;;;;;;;12.17;6.23;;;;;;;8.57;100.00;102193.63;6126779;23;20186;-74
2021/11/09 11:10:26;;;;;;;11.73;6.37;;;;;;;8.59;100.00;102186.72;6126618;23;20742;-74
2021/11/09 11:12:53;;;;;;;12.27;6.53;;;;;;;8.63;100.00;102185.88;6127918;23;20254;-74
2021/11/09 11:15:20;;;;;;;10.00;6.13;;;;;;;8.65;100.00;102191.06;6127032;23;20223;-74
2021/11/09 11:17:47;;;;;;;12.47;6.47;;;;;;;8.63;100.00;102188.47;6127615;23;20204;-73
2021/11/09 11:20:14;;;;;;;12.77;5.73;;;;;;;8.65;100.00;102181.56;6127144;23;20223;-74
2021/11/09 11:22:41;;;;;;;12.00;6.00;;;;;;;8.65;100.00;102188.47;6128113;23;20242;-74
2021/11/09 11:25:08;;;;;;;10.83;6.03;;;;;;;8.82;100.00;102186.84;6127067;23;20513;-74
2021/11/09 11:27:36;;;;;;;9.93;5.00;;;;;;;8.98;100.00;102186.94;6127653;23;20188;-74
2021/11/09 11:30:04;;;;;;;13.90;5.10;;;;;;;9.02;100.00;102186.09;6126824;23;20227;-74
2021/11/09 11:32:31;;;;;;;9.90;4.83;;;;;;;9.04;100.00;102190.47;6127455;23;20188;-74
2021/11/09 11:34:58;;;;;;;11.43;5.90;;;;;;;9.00;100.00;102191.28;6126996;23;20559;-74
2021/11/09 11:37:25;;;;;;;12.37;6.27;;;;;;;9.02;100.00;102191.31;6127104;23;20208;-74
2021/11/09 11:39:54;;;;;;;10.43;6.00;;;;;;;9.08;100.00;102189.59;6115471;23;20270;-74
2021/11/09 11:42:21;;;;;;;10.83;6.00;;;;;;;9.12;100.00;102193.09;6117210;23;20191;-74
2021/11/09 11:44:56;;;;;;;9.10;4.57;;;;;;;9.14;100.00;102198.31;6117736;23;20280;-74
2021/11/09 11:47:23;;;;;;;7.77;4.60;;;;;;;9.23;100.00;102194.03;6127042;23;20672;-74
2021/11/09 11:49:52;;;;;;;11.10;5.33;;;;;;;9.33;100.00;102200.13;6126211;23;20200;-74
2021/11/09 11:52:27;;;;;;;10.57;4.47;;;;;;;9.40;100.00;102201.03;6126079;23;20181;-74
2021/11/09 11:55:06;;;;;;;9.87;4.27;;;;;;;9.39;100.00;102200.16;6126622;23;20203;-74
2021/11/09 11:57:38;;;;;;;10.07;4.13;;;;;;;9.34;100.00;102193.19;6117209;23;20619;-74
2021/11/09 12:00:28;;;;;;;6.47;4.20;;;;;;;9.41;100.00;102201.03;6126037;23;20171;-74
2021/11/09 12:02:55;;;;;;;6.83;3.80;;;;;;;9.50;100.00;102204.53;6115012;23;20180;-74
2021/11/09 12:05:37;;;;;;;5.93;3.60;;;;;;;9.53;99.63;102204.53;6126619;23;20679;-74
2021/11/09 12:08:06;;;;;;;7.17;4.17;;;;;;;9.56;98.52;102208.03;6127241;23;20200;-74
2021/11/09 12:10:49;;;;;;;8.97;4.50;;;;;;;9.61;99.39;102198.50;6127098;23;20197;-74
2021/11/09 12:13:19;;;;;;;5.03;3.20;;;;;;;9.66;99.34;102201.97;6126618;23;20173;-74
2021/11/09 12:15:48;;;;;;;12.80;4.10;;;;;;;9.69;97.95;102197.63;6126776;23;20197;-74
2021/11/09 12:18:42;;;;;;;7.23;3.30;;;;;;;9.68;97.06;102195.91;6127208;23;20344;-74
2021/11/09 12:21:38;;;;;;;6.93;3.93;;;;;;;9.65;99.32;102199.38;6126630;23;20182;-74
2021/11/09 12:24:16;;;;;;;6.37;3.50;;;;;;;9.64;97.84;102200.25;6127029;23;20259;-74
2021/11/09 12:26:48;;;;;;;5.93;3.50;;;;;;;9.64;97.60;102201.13;6126771;23;20629;-74
2021/11/09 12:29:38;;;;;;;10.97;5.40;;;;;;;9.59;97.18;102205.44;6126820;23;20197;-74
2021/11/09 12:32:27;;;;;;;7.17;3.93;;;;;;;9.50;97.56;102205.41;6127147;23;20181;-74
2021/11/09 12:34:58;;;;;;;5.90;3.57;;;;;;;9.50;97.67;102196.72;6126984;23;20197;-74
2021/11/09 12:37:25;;;;;;;6.47;3.43;;;;;;;9.51;96.86;102201.94;6127020;23;20189;-74
2021/11/09 12:40:32;;;;;;;4.93;3.27;;;;;;;9.52;96.39;102203.69;6117413;23;20264;-74
2021/11/09 12:43:05;;;;;;;6.37;3.43;;;;;;;9.47;96.15;102194.97;6126630;23;20184;-74
2021/11/09 12:45:32;;;;;;;7.23;3.20;;;;;;;9.46;95.63;102194.13;6126451;23;20197;-74
2021/11/09 12:48:01;;;;;;;7.27;3.30;;;;;;;9.45;96.05;102187.16;6126675;23;20409;-74
2021/11/09 12:50:28;;;;;;;5.43;2.90;;;;;;;9.46;96.06;102188.00;6128084;23;20292;-73